createdAt,value
2023-03-13T00:02:01.571Z,83.71
2023-03-13T00:04:04.047Z,83.93
2023-03-13T00:06:06.735Z,84.16
2023-03-13T00:08:08.990Z,84.19
2023-03-13T00:10:11.836Z,83.50
2023-03-13T00:12:14.277Z,83.71
2023-03-13T00:14:16.504Z,84.66
2023-03-13T00:16:18.788Z,84.21
2023-03-13T00:18:21.017Z,84.31
2023-03-13T00:20:23.704Z,84.62
2023-03-13T00:22:25.884Z,84.59
2023-03-13T00:24:28.068Z,85.15
2023-03-13T00:26:30.823Z,84.67
2023-03-13T00:28:34.511Z,85.16
2023-03-13T00:30:36.849Z,84.09
2023-03-13T00:32:42.981Z,83.83
2023-03-13T00:34:45.294Z,83.82
2023-03-13T00:36:47.382Z,83.90
2023-03-13T00:38:50.414Z,84.27
2023-03-13T00:41:00.797Z,83.89
2023-03-13T00:43:02.903Z,84.23
2023-03-13T00:45:05.885Z,84.13
2023-03-13T00:47:08.081Z,84.56
2023-03-13T00:49:10.388Z,85.30
2023-03-13T00:51:13.298Z,85.98
2023-03-13T00:53:16.028Z,85.50
2023-03-13T00:55:18.417Z,86.26
2023-03-13T00:57:20.545Z,85.82
2023-03-13T00:59:22.774Z,86.29
2023-03-13T01:01:27.831Z,85.87
2023-03-13T01:03:31.596Z,85.12
2023-03-13T01:05:33.778Z,84.59
2023-03-13T01:07:36.136Z,84.54
2023-03-13T01:09:38.311Z,84.48
2023-03-13T01:11:42.455Z,84.48
2023-03-13T01:13:45.808Z,84.17
2023-03-13T01:15:47.983Z,83.81
2023-03-13T01:17:50.469Z,83.32
2023-03-13T01:19:56.500Z,82.84
2023-03-13T01:21:58.774Z,82.60
2023-03-13T01:24:01.654Z,83.03
2023-03-13T01:26:07.240Z,83.39
2023-03-13T01:28:09.396Z,83.97
2023-03-13T01:30:12.499Z,85.00
2023-03-13T01:32:14.822Z,84.28
2023-03-13T01:34:17.170Z,84.86
2023-03-13T01:36:19.728Z,85.43
2023-03-13T01:38:21.844Z,84.66
2023-03-13T01:40:24.520Z,84.89
2023-03-13T01:42:26.673Z,85.77
2023-03-13T01:44:29.101Z,86.97
2023-03-13T01:46:31.662Z,87.16
2023-03-13T01:48:40.541Z,86.57
2023-03-13T01:50:42.821Z,86.53
2023-03-13T01:52:44.980Z,85.92
2023-03-13T01:54:53.457Z,85.13
2023-03-13T01:57:02.612Z,85.72
2023-03-13T01:59:07.248Z,85.38
2023-03-13T02:01:10.407Z,85.01
2023-03-13T02:03:17.868Z,84.44
2023-03-13T02:05:23.073Z,84.99
2023-03-13T02:07:34.421Z,85.03
2023-03-13T02:09:39.969Z,84.84
2023-03-13T02:11:49.292Z,83.77
2023-03-13T02:13:52.194Z,83.65
2023-03-13T02:15:54.676Z,84.07
2023-03-13T02:17:57.304Z,84.23
2023-03-13T02:19:59.291Z,83.53
2023-03-13T02:22:07.477Z,83.69
2023-03-13T02:24:18.113Z,84.79
2023-03-13T02:26:20.240Z,86.34
2023-03-13T02:28:27.463Z,87.28
2023-03-13T02:30:29.593Z,86.82
2023-03-13T02:32:32.419Z,86.55
2023-03-13T02:34:38.544Z,87.38
2023-03-13T02:36:41.756Z,87.32
2023-03-13T02:38:52.652Z,86.92
2023-03-13T02:40:56.978Z,87.25
2023-03-13T02:43:01.672Z,88.82
2023-03-13T02:45:03.773Z,88.01
2023-03-13T02:47:06.068Z,88.59
2023-03-13T02:49:21.285Z,88.66
2023-03-13T02:51:26.763Z,89.30
2023-03-13T02:53:29.080Z,89.42
2023-03-13T02:55:37.356Z,88.10
2023-03-13T02:57:39.324Z,88.60
2023-03-13T02:59:41.393Z,89.13
2023-03-13T03:01:43.724Z,88.96
2023-03-13T03:03:45.763Z,89.24
2023-03-13T03:05:47.801Z,88.90
2023-03-13T03:07:51.065Z,88.30
2023-03-13T03:09:53.001Z,88.16
2023-03-13T03:11:55.057Z,88.74
2023-03-13T03:13:56.998Z,88.40
2023-03-13T03:15:59.459Z,89.25
2023-03-13T03:18:01.446Z,88.32
2023-03-13T03:20:08.111Z,88.26
2023-03-13T03:22:10.107Z,88.58
2023-03-13T03:24:12.165Z,88.40
2023-03-13T03:26:14.172Z,89.83
2023-03-13T03:28:16.157Z,89.84
2023-03-13T03:30:19.127Z,88.50
2023-03-13T03:32:21.348Z,89.07
2023-03-13T03:34:23.404Z,89.24
2023-03-13T03:36:25.511Z,89.50
2023-03-13T03:38:27.587Z,89.78
2023-03-13T03:40:30.496Z,90.42
2023-03-13T03:42:32.968Z,89.17
2023-03-13T03:44:34.974Z,89.64
2023-03-13T03:46:36.942Z,88.92
2023-03-13T03:48:39.019Z,89.75
2023-03-13T03:50:40.969Z,88.66
2023-03-13T03:52:43.075Z,88.76
2023-03-13T03:54:45.079Z,88.01
2023-03-13T03:56:47.030Z,88.07
2023-03-13T03:58:49.037Z,87.95
2023-03-13T04:00:51.024Z,88.66
2023-03-13T04:02:53.136Z,87.92
2023-03-13T04:04:55.149Z,87.85
2023-03-13T04:06:57.097Z,87.67
2023-03-13T04:08:59.132Z,86.95
2023-03-13T04:11:02.014Z,87.14
2023-03-13T04:13:04.092Z,87.15
2023-03-13T04:15:06.843Z,86.40
2023-03-13T04:17:08.795Z,86.02
2023-03-13T04:19:11.488Z,84.85
2023-03-13T04:21:13.473Z,84.27
2023-03-13T04:23:15.518Z,82.50
2023-03-13T04:25:17.887Z,82.07
2023-03-13T04:27:19.994Z,81.09
2023-03-13T04:29:22.136Z,80.55
2023-03-13T04:31:24.242Z,79.97
2023-03-13T04:33:26.243Z,80.08
2023-03-13T04:35:28.225Z,78.91
2023-03-13T04:37:30.290Z,78.55
2023-03-13T04:39:33.200Z,78.33
2023-03-13T04:41:35.238Z,78.25
2023-03-13T04:43:37.180Z,77.98
2023-03-13T04:45:39.230Z,78.34
2023-03-13T04:47:41.205Z,78.11
2023-03-13T04:49:43.255Z,78.36
2023-03-13T04:51:45.945Z,77.83
2023-03-13T04:53:47.902Z,77.92
2023-03-13T04:55:51.393Z,77.63
2023-03-13T04:57:53.403Z,77.82
2023-03-13T04:59:55.454Z,77.91
2023-03-13T05:01:57.453Z,78.84
2023-03-13T05:03:59.570Z,78.06
2023-03-13T05:06:01.786Z,78.02
2023-03-13T05:08:04.038Z,77.95
2023-03-13T05:10:06.434Z,78.33
2023-03-13T05:12:08.920Z,77.99
2023-03-13T05:14:11.726Z,78.43
2023-03-13T05:16:13.843Z,78.77
2023-03-13T05:18:15.902Z,79.90
2023-03-13T05:20:17.963Z,80.54
2023-03-13T05:22:19.978Z,80.48
2023-03-13T05:24:21.974Z,80.69
2023-03-13T05:26:24.050Z,80.29
2023-03-13T05:28:26.154Z,79.22
2023-03-13T05:30:28.115Z,78.94
2023-03-13T05:32:30.182Z,77.77
2023-03-13T05:34:32.190Z,76.96
2023-03-13T05:36:34.242Z,76.45
2023-03-13T05:38:36.321Z,74.57
2023-03-13T05:40:38.375Z,74.48
2023-03-13T05:42:40.641Z,73.61
2023-03-13T05:44:42.692Z,73.37
2023-03-13T05:46:44.731Z,73.09
2023-03-13T05:48:47.125Z,72.56
2023-03-13T05:50:49.133Z,72.12
2023-03-13T05:52:51.247Z,71.54
2023-03-13T05:54:53.258Z,71.23
2023-03-13T05:56:55.303Z,71.20
2023-03-13T05:58:57.356Z,70.89
2023-03-13T06:00:59.349Z,70.46
2023-03-13T06:03:01.408Z,70.44
2023-03-13T06:05:03.606Z,69.71
2023-03-13T06:07:05.823Z,69.56
2023-03-13T06:09:07.843Z,69.80
2023-03-13T06:11:09.968Z,69.91
2023-03-13T06:13:19.694Z,69.43
2023-03-13T06:15:23.079Z,68.99
2023-03-13T06:17:25.800Z,68.63
2023-03-13T06:19:28.053Z,68.67
2023-03-13T06:21:30.275Z,68.94
2023-03-13T06:23:32.499Z,69.21
2023-03-13T06:25:35.661Z,69.15
2023-03-13T06:27:37.776Z,70.14
2023-03-13T06:29:40.211Z,70.43
2023-03-13T06:31:42.650Z,70.30
2023-03-13T06:33:45.004Z,70.33
2023-03-13T06:35:56.197Z,69.86
2023-03-13T06:37:59.167Z,69.20
2023-03-13T06:40:01.475Z,68.99
2023-03-13T06:42:04.219Z,68.56
2023-03-13T06:44:06.646Z,68.36
2023-03-13T06:46:15.113Z,68.46
2023-03-13T06:48:18.446Z,67.65
2023-03-13T06:50:20.741Z,67.78
2023-03-13T06:52:28.736Z,67.45
2023-03-13T06:54:39.878Z,67.66
2023-03-13T06:56:42.297Z,67.61
2023-03-13T06:58:47.421Z,67.29
2023-03-13T07:00:49.580Z,67.62
2023-03-13T07:02:52.222Z,67.96
2023-03-13T07:04:54.469Z,68.41
2023-03-13T07:06:56.979Z,68.93
2023-03-13T07:08:59.409Z,69.06
2023-03-13T07:11:05.027Z,68.81
2023-03-13T07:13:07.406Z,68.67
2023-03-13T07:15:10.303Z,68.84
2023-03-13T07:17:12.498Z,68.49
2023-03-13T07:19:15.468Z,68.22
2023-03-13T07:21:17.859Z,68.00
2023-03-13T07:23:20.344Z,67.18
2023-03-13T07:25:22.474Z,66.98
2023-03-13T07:27:25.595Z,67.83
2023-03-13T07:29:28.094Z,67.32
2023-03-13T07:31:34.384Z,67.21
2023-03-13T07:33:36.730Z,66.22
2023-03-13T07:35:40.262Z,65.59
2023-03-13T07:37:43.574Z,65.92
2023-03-13T07:39:45.832Z,66.07
2023-03-13T07:41:48.056Z,65.17
2023-03-13T07:43:50.572Z,65.10
2023-03-13T07:45:57.121Z,64.79
2023-03-13T07:47:59.424Z,64.63
2023-03-13T07:50:01.865Z,64.70
2023-03-13T07:52:04.293Z,64.81
2023-03-13T07:54:06.566Z,64.85
2023-03-13T07:56:12.502Z,64.04
2023-03-13T07:58:14.636Z,64.66
2023-03-13T08:00:19.091Z,64.64
2023-03-13T08:02:21.598Z,64.72
2023-03-13T08:04:23.903Z,65.17
2023-03-13T08:06:27.887Z,64.49
2023-03-13T08:08:30.705Z,64.56
2023-03-13T08:10:32.936Z,64.66
2023-03-13T08:12:35.271Z,64.09
2023-03-13T08:14:37.658Z,63.74
2023-03-13T08:16:40.084Z,63.94
2023-03-13T08:18:44.825Z,64.18
2023-03-13T08:20:47.105Z,64.89
2023-03-13T08:22:50.837Z,64.33
2023-03-13T08:24:53.346Z,64.97
2023-03-13T08:26:55.603Z,65.18
2023-03-13T08:29:01.908Z,65.04
2023-03-13T08:31:10.695Z,64.98
2023-03-13T08:33:12.968Z,64.78
2023-03-13T08:35:15.473Z,64.66
2023-03-13T08:37:17.811Z,64.15
2023-03-13T08:39:21.233Z,64.13
2023-03-13T08:41:30.944Z,64.53
2023-03-13T08:43:33.250Z,64.36
2023-03-13T08:45:35.594Z,64.78
2023-03-13T08:47:38.065Z,64.78
2023-03-13T08:49:40.468Z,64.60
2023-03-13T08:51:42.745Z,64.68
2023-03-13T08:53:45.522Z,64.23
2023-03-13T08:55:53.889Z,64.00
2023-03-13T08:57:56.104Z,63.95
2023-03-13T08:59:58.405Z,64.08
2023-03-13T09:02:03.612Z,64.04
2023-03-13T09:04:06.866Z,64.38
2023-03-13T09:06:10.335Z,64.26
2023-03-13T09:08:12.968Z,64.26
2023-03-13T09:10:15.645Z,63.59
2023-03-13T09:12:29.991Z,63.84
2023-03-13T09:14:34.631Z,63.33
2023-03-13T09:16:44.566Z,63.33
2023-03-13T09:18:47.309Z,63.06
2023-03-13T09:20:49.490Z,63.04
2023-03-13T09:22:51.750Z,62.36
2023-03-13T09:24:53.985Z,62.10
2023-03-13T09:27:01.256Z,62.00
2023-03-13T09:29:04.067Z,62.42
2023-03-13T09:31:10.574Z,61.78
2023-03-13T09:33:13.012Z,61.63
2023-03-13T09:35:15.475Z,61.74
2023-03-13T09:37:17.598Z,62.22
2023-03-13T09:39:19.895Z,61.99
2023-03-13T09:41:31.385Z,61.64
2023-03-13T09:43:37.187Z,62.45
2023-03-13T09:45:44.718Z,61.86
2023-03-13T09:47:53.377Z,62.07
2023-03-13T09:50:02.982Z,61.72
2023-03-13T09:52:12.203Z,61.74
2023-03-13T09:54:18.023Z,61.42
2023-03-13T09:56:25.252Z,61.12
2023-03-13T09:58:30.923Z,61.12
2023-03-13T10:00:39.192Z,60.38
2023-03-13T10:02:47.573Z,60.41
2023-03-13T10:04:57.095Z,60.13
2023-03-13T10:06:59.913Z,60.15
2023-03-13T10:09:03.253Z,60.57
2023-03-13T10:11:12.093Z,60.29
2023-03-13T10:13:24.067Z,60.00
2023-03-13T10:15:31.262Z,59.95
2023-03-13T10:17:35.573Z,59.53
2023-03-13T10:19:43.727Z,59.63
2023-03-13T10:21:55.828Z,59.01
2023-03-13T10:24:04.524Z,58.67
2023-03-13T10:26:15.989Z,58.67
2023-03-13T10:28:20.691Z,58.86
2023-03-13T10:30:28.304Z,58.65
2023-03-13T10:32:31.175Z,58.33
2023-03-13T10:34:39.899Z,58.63
2023-03-13T10:36:46.531Z,58.23
2023-03-13T10:38:53.935Z,58.74
2023-03-13T10:40:59.977Z,59.31
2023-03-13T10:43:06.631Z,58.90
2023-03-13T10:45:18.385Z,58.71
2023-03-13T10:47:22.184Z,58.77
2023-03-13T10:49:25.505Z,58.51
2023-03-13T10:51:37.565Z,57.92
2023-03-13T10:53:39.905Z,58.39
2023-03-13T10:55:44.735Z,58.38
2023-03-13T10:57:55.899Z,58.38
2023-03-13T10:59:59.716Z,58.97
2023-03-13T11:02:02.467Z,58.93
2023-03-13T11:04:29.201Z,58.64
2023-03-13T11:06:35.445Z,57.74
2023-03-13T11:08:38.113Z,58.58
2023-03-13T11:10:55.006Z,58.35
2023-03-13T11:12:59.158Z,58.33
2023-03-13T11:15:02.442Z,57.62
2023-03-13T11:17:20.516Z,57.07
2023-03-13T11:19:26.470Z,57.45
2023-03-13T11:21:44.155Z,57.34
2023-03-13T11:23:55.038Z,57.19
2023-03-13T11:26:01.659Z,57.06
2023-03-13T11:28:10.231Z,57.34
2023-03-13T11:30:23.483Z,56.86
2023-03-13T11:32:34.335Z,56.75
2023-03-13T11:34:47.599Z,56.69
2023-03-13T11:36:54.762Z,57.02
2023-03-13T11:39:03.178Z,56.54
2023-03-13T11:41:12.995Z,56.61
2023-03-13T11:43:32.813Z,56.03
2023-03-13T11:45:49.487Z,56.53
2023-03-13T11:48:01.352Z,56.17
2023-03-13T11:50:09.922Z,56.37
2023-03-13T11:52:18.361Z,55.98
2023-03-13T11:54:24.981Z,55.07
2023-03-13T11:56:38.423Z,55.76
2023-03-13T11:58:50.054Z,55.45
2023-03-13T12:00:59.598Z,55.36
2023-03-13T12:03:12.317Z,55.56
2023-03-13T12:05:18.575Z,55.79
2023-03-13T12:07:28.852Z,56.05
2023-03-13T12:09:40.538Z,55.94
2023-03-13T12:11:52.861Z,54.98
2023-03-13T12:14:02.497Z,55.42
2023-03-13T12:16:13.772Z,55.19
2023-03-13T12:18:21.087Z,54.47
2023-03-13T12:20:28.915Z,54.63
2023-03-13T12:22:39.586Z,55.69
2023-03-13T12:24:45.037Z,56.14
2023-03-13T12:26:55.204Z,56.10
2023-03-13T12:29:04.500Z,56.31
2023-03-13T12:31:13.330Z,56.00
2023-03-13T12:33:24.812Z,55.46
2023-03-13T12:35:29.854Z,56.20
2023-03-13T12:37:46.084Z,56.61
2023-03-13T12:39:56.630Z,56.70
2023-03-13T12:42:11.199Z,56.44
2023-03-13T12:44:42.223Z,56.88
2023-03-13T12:46:47.727Z,56.65
2023-03-13T12:49:00.957Z,56.20
2023-03-13T12:51:14.311Z,56.73
2023-03-13T12:53:22.171Z,57.90
2023-03-13T12:55:33.293Z,57.44
2023-03-13T12:57:42.588Z,57.18
2023-03-13T12:59:53.991Z,56.81
2023-03-13T13:01:59.589Z,56.33
2023-03-13T13:04:08.646Z,56.59
2023-03-13T13:06:25.657Z,56.43
2023-03-13T13:08:41.355Z,56.83
2023-03-13T13:10:46.950Z,57.20
2023-03-13T13:12:55.742Z,57.69
2023-03-13T13:15:04.482Z,57.55
2023-03-13T13:17:11.431Z,57.33
2023-03-13T13:19:20.457Z,57.69
2023-03-13T13:21:26.979Z,58.45
2023-03-13T13:23:37.123Z,58.70
2023-03-13T13:25:44.558Z,58.90
2023-03-13T13:27:52.806Z,58.67
2023-03-13T13:30:01.709Z,58.70
2023-03-13T13:32:04.736Z,58.49
2023-03-13T13:34:07.824Z,58.67
2023-03-13T13:36:11.185Z,58.46
2023-03-13T13:38:20.379Z,58.45
2023-03-13T13:40:28.845Z,58.19
2023-03-13T13:42:32.499Z,57.86
2023-03-13T13:44:35.209Z,57.90
2023-03-13T13:46:44.743Z,57.53
2023-03-13T13:48:47.477Z,57.33
2023-03-13T13:50:56.540Z,56.93
2023-03-13T13:53:05.982Z,57.35
2023-03-13T13:55:15.454Z,57.85
2023-03-13T13:57:21.484Z,57.62
2023-03-13T13:59:27.921Z,58.04
2023-03-13T14:01:31.304Z,58.04
2023-03-13T14:03:36.726Z,57.96
2023-03-13T14:05:42.156Z,57.64
2023-03-13T14:07:52.390Z,57.40
2023-03-13T14:10:04.869Z,57.81
2023-03-13T14:12:19.356Z,58.18
2023-03-13T14:14:22.967Z,58.33
2023-03-13T14:16:27.646Z,58.13
2023-03-13T14:18:31.540Z,58.14
2023-03-13T14:20:35.917Z,57.86
2023-03-13T14:22:44.719Z,57.33
2023-03-13T14:24:58.937Z,57.39
2023-03-13T14:27:02.073Z,56.67
2023-03-13T14:29:07.788Z,56.54
2023-03-13T14:31:12.834Z,56.52
2023-03-13T14:33:16.383Z,56.56
2023-03-13T14:35:21.202Z,56.42
2023-03-13T14:37:30.222Z,57.16
2023-03-13T14:39:34.549Z,56.59
2023-03-13T14:41:50.404Z,56.12
2023-03-13T14:43:52.972Z,57.04
2023-03-13T14:45:56.003Z,56.46
2023-03-13T14:48:04.947Z,56.70
2023-03-13T14:50:11.988Z,56.59
2023-03-13T14:52:23.033Z,56.36
2023-03-13T14:54:32.796Z,56.44
2023-03-13T14:56:38.043Z,57.02
2023-03-13T14:58:40.621Z,57.15
2023-03-13T15:00:45.308Z,57.37
2023-03-13T15:02:47.834Z,57.37
2023-03-13T15:04:52.800Z,57.22
2023-03-13T15:07:03.840Z,57.54
2023-03-13T15:09:09.805Z,57.73
2023-03-13T15:11:18.631Z,57.81
2023-03-13T15:13:24.832Z,57.92
2023-03-13T15:15:28.393Z,57.72
2023-03-13T15:17:30.880Z,58.19
2023-03-13T15:19:33.322Z,57.91
2023-03-13T15:21:49.720Z,57.54
2023-03-13T15:23:56.860Z,57.40
2023-03-13T15:25:59.464Z,57.55
2023-03-13T15:28:02.220Z,57.48
2023-03-13T15:30:06.258Z,57.54
2023-03-13T15:32:17.646Z,57.61
2023-03-13T15:34:26.605Z,57.64
2023-03-13T15:36:30.422Z,57.50
2023-03-13T15:38:33.425Z,57.50
2023-03-13T15:40:36.394Z,57.19
2023-03-13T15:42:39.114Z,56.83
2023-03-13T15:44:41.585Z,56.77
2023-03-13T15:46:44.402Z,56.83
2023-03-13T15:48:47.511Z,56.65
2023-03-13T15:50:53.195Z,57.46
2023-03-13T15:52:55.911Z,57.15
2023-03-13T15:54:58.300Z,56.81
2023-03-13T15:57:01.104Z,56.23
2023-03-13T15:59:11.903Z,56.07
2023-03-13T16:01:15.070Z,55.65
2023-03-13T16:03:19.591Z,55.53
2023-03-13T16:05:21.879Z,55.33
2023-03-13T16:07:25.025Z,55.60
2023-03-13T16:09:27.450Z,55.15
2023-03-13T16:11:30.327Z,54.73
2023-03-13T16:13:34.386Z,54.70
2023-03-13T16:15:37.656Z,54.70
2023-03-13T16:17:40.305Z,54.57
2023-03-13T16:19:44.165Z,54.46
2023-03-13T16:21:48.796Z,54.50
2023-03-13T16:23:51.257Z,54.32
2023-03-13T16:25:53.570Z,54.91
2023-03-13T16:27:56.624Z,54.75
2023-03-13T16:29:59.196Z,54.75
2023-03-13T16:32:02.147Z,54.83
2023-03-13T16:34:04.636Z,55.00
2023-03-13T16:36:14.081Z,55.58
2023-03-13T16:38:17.126Z,55.48
2023-03-13T16:40:24.276Z,55.28
2023-03-13T16:42:27.688Z,56.42
2023-03-13T16:44:30.139Z,56.48
2023-03-13T16:46:35.029Z,56.17
2023-03-13T16:48:44.562Z,56.45
2023-03-13T16:50:49.152Z,56.41
2023-03-13T16:52:53.018Z,56.63
2023-03-13T16:54:56.363Z,56.72
2023-03-13T16:57:00.792Z,56.82
2023-03-13T16:59:08.712Z,56.77
2023-03-13T17:01:12.219Z,56.96
2023-03-13T17:03:20.349Z,56.99
2023-03-13T17:05:27.694Z,57.13
2023-03-13T17:07:45.589Z,57.03
2023-03-13T17:09:59.610Z,57.50
2023-03-13T17:12:06.525Z,57.65
2023-03-13T17:14:11.152Z,57.60
2023-03-13T17:16:18.524Z,58.11
2023-03-13T17:18:21.130Z,58.68
2023-03-13T17:20:28.813Z,59.31
2023-03-13T17:22:33.535Z,59.46
2023-03-13T17:24:37.003Z,60.06
2023-03-13T17:26:43.156Z,60.05
2023-03-13T17:28:49.646Z,60.79
2023-03-13T17:30:53.026Z,61.13
2023-03-13T17:32:55.917Z,61.76
2023-03-13T17:34:58.481Z,61.30
2023-03-13T17:37:06.281Z,61.32
2023-03-13T17:39:13.731Z,61.53
2023-03-13T17:41:19.738Z,62.11
2023-03-13T17:43:22.417Z,62.67
2023-03-13T17:45:25.658Z,62.81
2023-03-13T17:47:28.232Z,62.54
2023-03-13T17:49:31.605Z,65.17
2023-03-13T17:51:37.719Z,68.14
2023-03-13T17:53:40.550Z,68.25
2023-03-13T17:55:44.574Z,68.64
2023-03-13T17:57:49.108Z,68.70
2023-03-13T17:59:51.772Z,69.74
2023-03-13T18:01:54.566Z,69.84
2023-03-13T18:04:00.164Z,70.43
2023-03-13T18:06:03.439Z,70.54
2023-03-13T18:08:06.467Z,70.38
2023-03-13T18:10:17.687Z,71.57
2023-03-13T18:12:21.026Z,71.52
2023-03-13T18:14:23.496Z,71.22
2023-03-13T18:16:30.743Z,72.18
2023-03-13T18:18:40.437Z,71.94
2023-03-13T18:21:23.768Z,71.84
2023-03-13T18:23:25.973Z,71.47
2023-03-13T18:25:29.425Z,72.42
2023-03-13T18:27:31.826Z,72.84
2023-03-13T18:29:34.400Z,72.27
2023-03-13T18:31:41.636Z,72.29
2023-03-13T18:33:47.900Z,72.45
2023-03-13T18:35:51.077Z,72.88
2023-03-13T18:37:54.171Z,72.91
2023-03-13T18:39:57.279Z,72.35
2023-03-13T18:42:00.460Z,72.49
2023-03-13T18:44:02.855Z,72.31
2023-03-13T18:46:05.696Z,71.87
2023-03-13T18:48:11.135Z,71.95
2023-03-13T18:50:17.406Z,71.62
2023-03-13T18:52:19.930Z,71.63
2023-03-13T18:54:22.295Z,71.18
2023-03-13T18:56:27.163Z,70.68
2023-03-13T18:58:29.552Z,70.44
2023-03-13T19:00:32.651Z,70.24
2023-03-13T19:02:35.392Z,70.05
2023-03-13T19:04:38.120Z,70.55
2023-03-13T19:06:41.516Z,69.81
2023-03-13T19:08:44.977Z,69.04
2023-03-13T19:10:47.669Z,68.98
2023-03-13T19:12:51.111Z,68.88
2023-03-13T19:14:53.537Z,69.07
2023-03-13T19:16:57.843Z,68.83
2023-03-13T19:19:00.086Z,68.17
2023-03-13T19:21:02.183Z,68.66
2023-03-13T19:23:04.361Z,67.91
2023-03-13T19:25:07.520Z,67.53
2023-03-13T19:27:13.336Z,67.98
2023-03-13T19:29:19.185Z,67.44
2023-03-13T19:31:22.536Z,67.54
2023-03-13T19:33:25.074Z,66.91
2023-03-13T19:35:27.516Z,67.34
2023-03-13T19:37:29.729Z,66.95
2023-03-13T19:39:32.090Z,66.78
2023-03-13T19:41:36.690Z,67.91
2023-03-13T19:43:40.060Z,67.41
2023-03-13T19:45:42.324Z,67.58
2023-03-13T19:47:45.019Z,67.91
2023-03-13T19:49:50.090Z,67.84
2023-03-13T19:51:52.212Z,67.96
2023-03-13T19:53:55.612Z,68.03
2023-03-13T19:55:57.920Z,67.73
2023-03-13T19:58:00.784Z,67.65
2023-03-13T20:00:04.937Z,68.04
2023-03-13T20:02:09.071Z,67.57
2023-03-13T20:04:12.218Z,68.06
2023-03-13T20:06:17.750Z,68.07
2023-03-13T20:08:19.895Z,67.65
2023-03-13T20:10:22.702Z,67.71
2023-03-13T20:12:24.772Z,67.62
2023-03-13T20:14:26.935Z,67.26
2023-03-13T20:16:30.964Z,68.09
2023-03-13T20:18:34.128Z,67.68
2023-03-13T20:20:36.289Z,67.87
2023-03-13T20:22:38.559Z,67.80
2023-03-13T20:24:40.946Z,68.11
2023-03-13T20:26:43.184Z,67.33
2023-03-13T20:28:48.038Z,67.11
2023-03-13T20:30:50.972Z,67.37
2023-03-13T20:32:59.694Z,67.07
2023-03-13T20:35:02.575Z,67.38
2023-03-13T20:37:04.817Z,67.46
2023-03-13T20:39:07.071Z,67.87
2023-03-13T20:41:10.207Z,68.45
2023-03-13T20:43:12.245Z,68.44
2023-03-13T20:45:14.456Z,68.06
2023-03-13T20:47:16.684Z,67.93
2023-03-13T20:49:18.828Z,68.20
2023-03-13T20:51:21.241Z,67.71
2023-03-13T20:53:25.316Z,68.11
2023-03-13T20:55:27.605Z,67.90
2023-03-13T20:57:29.760Z,68.13
2023-03-13T20:59:37.483Z,67.97
2023-03-13T21:01:42.894Z,68.05
2023-03-13T21:03:45.117Z,67.60
2023-03-13T21:05:47.204Z,67.44
2023-03-13T21:07:49.368Z,67.63
2023-03-13T21:09:51.524Z,67.69
2023-03-13T21:11:54.002Z,67.81
2023-03-13T21:13:56.769Z,67.93
2023-03-13T21:16:01.986Z,67.56
2023-03-13T21:18:05.021Z,67.82
2023-03-13T21:20:12.383Z,67.98
2023-03-13T21:22:14.519Z,67.97
2023-03-13T21:24:16.613Z,67.68
2023-03-13T21:26:19.070Z,67.64
2023-03-13T21:28:21.615Z,68.17
2023-03-13T21:30:24.524Z,68.51
2023-03-13T21:32:26.708Z,68.08
2023-03-13T21:34:28.899Z,67.92
2023-03-13T21:36:31.055Z,68.63
2023-03-13T21:38:34.135Z,68.37
2023-03-13T21:40:36.214Z,68.99
2023-03-13T21:42:38.331Z,68.70
2023-03-13T21:44:40.647Z,68.42
2023-03-13T21:46:42.852Z,68.83
2023-03-13T21:50:52.491Z,68.06
2023-03-13T21:52:54.732Z,68.57
2023-03-13T21:54:56.853Z,68.10
2023-03-13T21:56:59.101Z,67.86
2023-03-13T21:59:01.431Z,67.67
2023-03-13T22:01:03.786Z,68.05
2023-03-13T22:03:05.972Z,68.02
2023-03-13T22:05:09.486Z,67.44
2023-03-13T22:07:11.818Z,67.37
2023-03-13T22:09:14.025Z,67.50
2023-03-13T22:11:16.496Z,67.89
2023-03-13T22:13:19.391Z,68.08
2023-03-13T22:15:21.454Z,67.92
2023-03-13T22:17:23.691Z,67.84
2023-03-13T22:19:25.782Z,68.26
2023-03-13T22:21:29.889Z,67.82
2023-03-13T22:23:32.267Z,68.46
2023-03-13T22:25:35.088Z,68.52
2023-03-13T22:27:37.372Z,68.59
2023-03-13T22:29:39.647Z,68.71
2023-03-13T22:31:41.826Z,69.16
2023-03-13T22:33:43.936Z,69.26
2023-03-13T22:35:52.753Z,69.38
2023-03-13T22:37:55.085Z,69.37
2023-03-13T22:39:57.193Z,69.22
2023-03-13T22:41:59.582Z,69.99
2023-03-13T22:44:01.744Z,69.96
2023-03-13T22:46:04.861Z,69.57
2023-03-13T22:48:08.310Z,69.06
2023-03-13T22:50:12.589Z,68.94
2023-03-13T22:52:14.702Z,68.87
2023-03-13T22:54:16.830Z,68.59
2023-03-13T22:56:18.968Z,68.93
2023-03-13T22:58:21.070Z,68.99
2023-03-13T23:00:23.330Z,69.10
2023-03-13T23:02:27.667Z,69.11
2023-03-13T23:04:29.766Z,69.30
2023-03-13T23:06:32.049Z,69.20
2023-03-13T23:08:34.401Z,69.36
2023-03-13T23:10:37.114Z,69.28
2023-03-13T23:12:39.365Z,70.09
2023-03-13T23:14:41.496Z,70.08
2023-03-13T23:16:43.740Z,70.26
2023-03-13T23:18:45.855Z,70.30
2023-03-13T23:20:47.933Z,69.93
2023-03-13T23:22:50.425Z,70.14
2023-03-13T23:24:54.372Z,70.22
2023-03-13T23:26:56.422Z,69.88
2023-03-13T23:28:58.555Z,70.15
2023-03-13T23:31:00.984Z,70.37
2023-03-13T23:33:03.015Z,71.28
2023-03-13T23:35:06.499Z,70.38
2023-03-13T23:37:08.793Z,69.77
2023-03-13T23:39:10.950Z,70.22
2023-03-13T23:41:14.937Z,69.92
2023-03-13T23:43:17.378Z,70.31
2023-03-13T23:45:20.093Z,70.53
2023-03-13T23:47:22.343Z,70.69
2023-03-13T23:49:24.466Z,70.89
2023-03-13T23:51:28.934Z,70.77
2023-03-13T23:53:31.199Z,70.90
2023-03-13T23:55:33.517Z,70.86
2023-03-13T23:57:37.772Z,72.06
2023-03-13T23:59:40.123Z,72.47
